Time;durP1;ratioP1;P1;durP2;ratioP2;P2;SDS_P1;SDS_P2;PMS_P1;PMS_P2;Temp;Humidity;BMP_temperature;BMP_pressure;BME280_temperature;BME280_humidity;BME280_pressure;Samples;Min_cycle;Max_cycle;Signal;HPM_P1;HPM_P2
2022/01/26 00:07:36;;;;;;;12.60;8.23;;;;;;;3.98;100.00;102523.25;5096777;28;20237;-53
2022/01/26 00:10:03;;;;;;;11.73;7.23;;;;;;;4.07;100.00;102515.06;5100448;28;20441;-61
2022/01/26 00:12:29;;;;;;;13.90;8.43;;;;;;;4.08;100.00;102519.47;5096209;28;20249;-51
2022/01/26 00:14:55;;;;;;;15.97;9.27;;;;;;;4.10;100.00;102517.81;5095032;28;20291;-52
2022/01/26 00:17:22;;;;;;;13.83;8.93;;;;;;;4.08;100.00;102514.28;5091002;28;20493;-53
2022/01/26 00:19:53;;;;;;;14.10;7.97;;;;;;;4.10;100.00;102523.03;5090189;28;20255;-55
2022/01/26 00:22:41;;;;;;;12.87;8.20;;;;;;;4.09;100.00;102522.97;5084675;28;20234;-55
2022/01/26 00:25:23;;;;;;;15.93;9.03;;;;;;;4.01;100.00;102517.34;5090903;28;20234;-52
2022/01/26 00:27:53;;;;;;;13.43;9.47;;;;;;;4.06;100.00;102516.78;5102442;28;20242;-54
2022/01/26 00:38:38;;;;;;;13.33;8.97;;;;;;;4.03;100.00;102510.50;5104628;28;20290;-52
2022/01/26 00:41:07;;;;;;;15.37;8.97;;;;;;;3.98;100.00;102511.97;5095458;27;20250;-51
2022/01/26 00:43:35;;;;;;;13.23;8.73;;;;;;;3.97;100.00;102508.50;5083468;28;20259;-52
2022/01/26 00:46:03;;;;;;;12.30;8.97;;;;;;;4.04;100.00;102517.53;5083000;27;20222;-54
2022/01/26 00:48:31;;;;;;;20.97;9.97;;;;;;;4.17;100.00;102508.66;5083985;28;20687;-52
2022/01/26 00:51:02;;;;;;;16.57;9.73;;;;;;;4.02;100.00;102513.94;5089428;28;20234;-50
2022/01/26 00:53:33;;;;;;;13.07;8.93;;;;;;;4.14;100.00;102509.41;5092438;27;20223;-52
2022/01/26 00:56:02;;;;;;;13.70;9.63;;;;;;;4.20;100.00;102509.72;5090430;28;20285;-52
2022/01/26 00:58:29;;;;;;;14.70;9.07;;;;;;;4.13;100.00;102518.00;5085568;28;20241;-51
2022/01/26 01:00:57;;;;;;;14.93;9.53;;;;;;;4.10;100.00;102516.94;5084812;28;20230;-52
2022/01/26 01:03:24;;;;;;;13.13;9.20;;;;;;;4.18;100.00;102506.16;5089891;28;20259;-51
2022/01/26 01:05:55;;;;;;;14.43;9.07;;;;;;;4.20;100.00;102520.13;5090001;28;20235;-52
2022/01/26 01:08:23;;;;;;;11.23;7.60;;;;;;;4.24;100.00;102516.84;5079757;28;20234;-51
2022/01/26 01:10:51;;;;;;;14.73;9.20;;;;;;;4.21;100.00;102518.41;5091354;28;20286;-51
2022/01/26 01:13:23;;;;;;;12.97;8.53;;;;;;;4.22;100.00;102513.31;5075379;28;20291;-52
2022/01/26 01:15:51;;;;;;;15.77;8.47;;;;;;;4.25;100.00;102521.28;5080739;28;20326;-51
2022/01/26 01:18:22;;;;;;;12.80;8.63;;;;;;;4.22;100.00;102528.91;5086138;28;20227;-51
2022/01/26 01:21:14;;;;;;;14.13;9.17;;;;;;;4.18;100.00;102524.34;5091127;27;20253;-51
2022/01/26 01:29:14;;;;;;;13.70;8.87;;;;;;;4.07;100.00;102528.06;5078314;27;20302;-51
2022/01/26 01:31:46;;;;;;;11.60;8.77;;;;;;;4.04;100.00;102518.41;5081576;28;20305;-52
2022/01/26 01:34:14;;;;;;;15.77;9.73;;;;;;;3.97;100.00;102520.59;5085097;27;20241;-52
2022/01/26 01:36:44;;;;;;;15.40;8.00;;;;;;;3.93;100.00;102514.34;5074710;28;20245;-52
2022/01/26 01:39:10;;;;;;;13.97;8.73;;;;;;;4.00;100.00;102518.13;5081580;27;20303;-50
2022/01/26 01:41:39;;;;;;;12.70;8.43;;;;;;;3.98;100.00;102522.38;5081828;28;20322;-52
2022/01/26 01:44:08;;;;;;;13.50;8.70;;;;;;;4.04;100.00;102517.53;5084652;27;20230;-52
2022/01/26 01:46:34;;;;;;;15.60;7.93;;;;;;;3.95;100.00;102517.00;5088878;28;20935;-53
2022/01/26 01:49:01;;;;;;;13.43;8.60;;;;;;;3.89;100.00;102511.47;5087607;28;20238;-52
2022/01/26 01:51:32;;;;;;;17.40;8.30;;;;;;;3.91;100.00;102507.25;5077958;28;20237;-53
2022/01/26 01:53:58;;;;;;;14.10;8.67;;;;;;;3.93;100.00;102503.03;5067347;28;20272;-52
2022/01/26 01:56:26;;;;;;;14.77;8.87;;;;;;;3.81;100.00;102504.16;5075896;28;20236;-50
2022/01/26 01:58:53;;;;;;;15.20;8.10;;;;;;;3.87;100.00;102505.31;5085843;28;20783;-51
2022/01/26 02:01:21;;;;;;;15.70;9.27;;;;;;;3.88;100.00;102504.50;5064699;28;20269;-53
2022/01/26 02:03:47;;;;;;;12.33;8.50;;;;;;;3.95;100.00;102489.31;5081215;27;20690;-54
2022/01/26 02:06:14;;;;;;;13.63;7.90;;;;;;;3.91;100.00;102494.28;5069036;28;20985;-53
2022/01/26 02:08:41;;;;;;;11.43;7.80;;;;;;;3.93;100.00;102493.56;5079779;27;20702;-51
2022/01/26 02:11:09;;;;;;;13.03;8.07;;;;;;;3.94;100.00;102478.84;5064723;28;20839;-53
2022/01/26 02:13:44;;;;;;;11.67;7.83;;;;;;;3.92;100.00;102489.13;5079338;27;20583;-53
2022/01/26 02:16:18;;;;;;;11.73;7.70;;;;;;;3.85;100.00;102491.31;5073703;27;20309;-53
2022/01/26 02:19:01;;;;;;;12.37;8.43;;;;;;;3.85;100.00;102478.34;5078164;28;20230;-51
2022/01/26 02:51:54;;;;;;;15.87;9.90;;;;;;;3.58;100.00;102463.03;5071739;28;20331;-55
2022/01/26 02:54:43;;;;;;;19.57;10.03;;;;;;;3.59;100.00;102459.63;5063647;28;20238;-50
2022/01/26 02:57:30;;;;;;;14.07;8.90;;;;;;;3.67;100.00;102467.84;5077434;28;20244;-53
2022/01/26 03:00:14;;;;;;;14.23;7.80;;;;;;;3.64;100.00;102462.47;5078346;28;20224;-52
2022/01/26 03:02:46;;;;;;;16.60;8.57;;;;;;;3.54;100.00;102461.06;5073355;28;20413;-52
2022/01/26 03:05:15;;;;;;;15.67;9.43;;;;;;;3.59;100.00;102459.63;5063301;28;20215;-53
2022/01/26 03:07:46;;;;;;;17.07;9.47;;;;;;;3.55;100.00;102468.06;5070175;28;20315;-52
2022/01/26 03:10:20;;;;;;;15.27;9.27;;;;;;;3.55;100.00;102458.56;5082584;28;20233;-52
2022/01/26 03:12:52;;;;;;;18.00;8.93;;;;;;;3.59;100.00;102462.22;5081543;28;20233;-52
2022/01/26 03:15:22;;;;;;;20.57;9.53;;;;;;;3.41;100.00;102456.91;5069502;28;20246;-52
2022/01/26 03:20:47;;;;;;;21.07;10.90;;;;;;;3.53;100.00;102452.38;5036904;28;20413;-51
2022/01/26 03:28:47;;;;;;;22.93;10.97;;;;;;;3.50;100.00;102447.03;5082015;28;20259;-51
2022/01/26 03:31:36;;;;;;;18.17;11.10;;;;;;;3.49;100.00;102452.13;5070300;28;20945;-53
2022/01/26 03:34:08;;;;;;;16.90;10.93;;;;;;;3.43;100.00;102451.78;5078987;28;20222;-51
2022/01/26 03:36:45;;;;;;;22.03;11.57;;;;;;;3.41;100.00;102449.13;5072254;28;20248;-50
2022/01/26 03:39:14;;;;;;;19.77;11.17;;;;;;;3.45;100.00;102445.00;5076563;28;20233;-51
2022/01/26 03:41:45;;;;;;;19.20;12.27;;;;;;;3.44;100.00;102449.31;5081388;28;20248;-51
2022/01/26 03:44:12;;;;;;;22.00;12.27;;;;;;;3.37;100.00;102441.06;5065234;28;20229;-51
2022/01/26 03:46:39;;;;;;;18.23;10.20;;;;;;;3.38;100.00;102448.06;5074141;27;20244;-50
2022/01/26 03:49:06;;;;;;;20.87;12.37;;;;;;;3.41;100.00;102443.03;5079438;27;20245;-52
2022/01/26 03:51:33;;;;;;;19.73;11.37;;;;;;;3.34;100.00;102437.50;5080414;28;20309;-51
2022/01/26 03:54:00;;;;;;;25.17;11.57;;;;;;;3.48;100.00;102437.38;5082338;27;20238;-53
2022/01/26 03:56:26;;;;;;;20.13;11.13;;;;;;;3.34;100.00;102437.50;5081424;28;20221;-53
2022/01/26 03:58:54;;;;;;;23.70;12.13;;;;;;;3.35;100.00;102436.69;5078734;27;20358;-51
2022/01/26 04:01:21;;;;;;;19.50;10.27;;;;;;;3.33;100.00;102445.19;5085474;27;20257;-54
2022/01/26 04:03:47;;;;;;;27.27;13.00;;;;;;;3.25;100.00;102441.28;5084960;28;20249;-51
2022/01/26 04:06:13;;;;;;;23.07;13.57;;;;;;;3.25;100.00;102444.75;5086498;28;20651;-51
2022/01/26 04:08:42;;;;;;;26.10;12.60;;;;;;;3.22;100.00;102435.91;5084578;27;20249;-51
2022/01/26 04:11:25;;;;;;;25.13;11.23;;;;;;;3.10;100.00;102437.00;5083145;27;20303;-52
2022/01/26 04:13:52;;;;;;;26.87;13.07;;;;;;;3.10;100.00;102436.13;5080036;28;20225;-51
2022/01/26 04:16:20;;;;;;;21.83;12.50;;;;;;;3.14;100.00;102445.88;5078494;28;20332;-50
2022/01/26 04:18:46;;;;;;;23.97;12.13;;;;;;;3.16;100.00;102433.88;5086858;27;20233;-55
2022/01/26 04:21:20;;;;;;;25.60;12.90;;;;;;;3.19;100.00;102434.03;5088060;28;20726;-51
2022/01/26 04:23:51;;;;;;;27.47;13.57;;;;;;;3.10;100.00;102431.81;5086928;27;20270;-53
2022/01/26 04:26:21;;;;;;;29.20;12.73;;;;;;;3.09;100.00;102434.34;5079734;28;20908;-53
2022/01/26 04:28:52;;;;;;;28.57;14.13;;;;;;;3.16;100.00;102425.19;5096812;27;20238;-52
2022/01/26 04:31:21;;;;;;;24.80;12.70;;;;;;;3.07;100.00;102433.34;5088972;28;20259;-56
2022/01/26 04:33:48;;;;;;;25.37;12.70;;;;;;;3.04;100.00;102438.34;5095987;28;20434;-52
2022/01/26 04:36:20;;;;;;;28.57;13.17;;;;;;;3.09;100.00;102424.84;5092766;28;20278;-56
2022/01/26 04:39:06;;;;;;;23.97;13.20;;;;;;;3.12;100.00;102434.50;5040160;28;20250;-52
2022/01/26 04:41:37;;;;;;;26.40;12.10;;;;;;;3.07;100.00;102423.84;5061332;28;20860;-51
2022/01/26 04:44:09;;;;;;;20.60;12.40;;;;;;;3.06;100.00;102421.19;5074126;28;20241;-53
2022/01/26 04:46:37;;;;;;;23.33;12.63;;;;;;;2.94;100.00;102429.16;5084601;27;20716;-50
2022/01/26 04:49:03;;;;;;;25.57;11.70;;;;;;;2.97;100.00;102431.94;5086139;28;20747;-53
2022/01/26 04:51:30;;;;;;;29.67;13.13;;;;;;;2.98;100.00;102428.50;5083868;27;20234;-49
2022/01/26 04:53:57;;;;;;;24.90;13.53;;;;;;;2.95;100.00;102425.78;5085398;28;20231;-51
2022/01/26 04:56:23;;;;;;;22.53;12.50;;;;;;;3.01;100.00;102430.41;5077180;28;21620;-53
2022/01/26 04:58:49;;;;;;;21.93;11.03;;;;;;;3.06;100.00;102421.19;5081297;27;20322;-52
2022/01/26 05:01:15;;;;;;;25.43;13.00;;;;;;;3.03;100.00;102428.81;5077084;28;20356;-51
2022/01/26 05:03:43;;;;;;;24.87;12.37;;;;;;;2.97;100.00;102424.13;5085968;28;20314;-54
2022/01/26 05:06:09;;;;;;;19.40;11.20;;;;;;;3.02;100.00;102417.53;5075247;27;20750;-51
2022/01/26 05:08:36;;;;;;;25.60;12.10;;;;;;;3.06;100.00;102421.19;5083660;27;20239;-52
2022/01/26 05:11:04;;;;;;;24.60;13.60;;;;;;;2.89;100.00;102424.53;5081080;28;20230;-53
2022/01/26 05:13:31;;;;;;;18.17;11.63;;;;;;;2.83;100.00;102415.56;5095452;28;20237;-53
2022/01/26 05:15:57;;;;;;;17.80;10.10;;;;;;;2.90;100.00;102410.75;5099521;27;20263;-55
2022/01/26 05:18:24;;;;;;;21.73;9.87;;;;;;;2.85;100.00;102413.09;5095149;28;20976;-53
2022/01/26 05:20:52;;;;;;;19.27;10.33;;;;;;;2.86;100.00;102414.84;5094229;27;20268;-52
2022/01/26 05:23:18;;;;;;;16.73;9.03;;;;;;;2.88;100.00;102418.44;5085972;28;20217;-51
2022/01/26 05:25:45;;;;;;;15.47;9.57;;;;;;;2.96;100.00;102400.72;5092991;28;20253;-52
2022/01/26 05:28:11;;;;;;;17.07;9.30;;;;;;;2.81;100.00;102412.00;5089205;28;20256;-51
2022/01/26 05:30:37;;;;;;;14.30;7.90;;;;;;;2.79;100.00;102413.59;5092564;27;20610;-52
2022/01/26 05:33:04;;;;;;;15.60;8.67;;;;;;;2.84;100.00;102404.41;5089791;28;20264;-51
2022/01/26 05:35:31;;;;;;;17.30;9.00;;;;;;;2.84;100.00;102412.19;5082492;27;20874;-51
2022/01/26 05:37:58;;;;;;;15.50;8.33;;;;;;;2.73;100.00;102408.06;5090485;27;20939;-60
2022/01/26 05:40:25;;;;;;;15.33;8.73;;;;;;;2.69;100.00;102405.22;5088397;28;20238;-54
2022/01/26 05:42:51;;;;;;;13.57;7.37;;;;;;;2.69;100.00;102407.81;5082427;28;20287;-50
2022/01/26 05:45:24;;;;;;;14.23;8.87;;;;;;;2.67;100.00;102410.31;5087243;28;20279;-51
2022/01/26 05:47:51;;;;;;;15.27;8.40;;;;;;;2.72;100.00;102411.47;5089049;28;20283;-52
2022/01/26 05:50:18;;;;;;;16.67;9.37;;;;;;;2.76;100.00;102412.53;5092779;28;20657;-54
2022/01/26 05:52:45;;;;;;;17.73;10.00;;;;;;;2.59;100.00;102409.84;5086032;27;20252;-56
2022/01/26 05:55:12;;;;;;;15.03;9.20;;;;;;;2.66;100.00;102403.31;5089323;28;20238;-50
2022/01/26 05:57:39;;;;;;;18.30;9.53;;;;;;;2.62;100.00;102403.97;5093865;28;20306;-52
2022/01/26 06:00:08;;;;;;;17.27;8.67;;;;;;;2.49;100.00;102407.56;5092304;28;20311;-52
2022/01/26 06:02:34;;;;;;;17.20;9.17;;;;;;;2.51;100.00;102400.75;5085893;28;22081;-54
2022/01/26 06:05:01;;;;;;;17.50;8.80;;;;;;;2.50;100.00;102408.44;5087727;28;20221;-50
2022/01/26 06:07:27;;;;;;;17.00;8.77;;;;;;;2.54;100.00;102411.28;5088367;28;20237;-54
2022/01/26 06:09:53;;;;;;;15.50;8.90;;;;;;;2.50;100.00;102398.06;5085894;28;20232;-53
2022/01/26 06:12:21;;;;;;;14.83;8.90;;;;;;;2.54;100.00;102408.69;5081766;28;20324;-51
2022/01/26 06:14:47;;;;;;;19.93;9.87;;;;;;;2.52;100.00;102406.81;5083140;28;20366;-51
2022/01/26 06:17:14;;;;;;;21.00;9.03;;;;;;;2.54;100.00;102397.44;5077205;28;20744;-51
2022/01/26 06:19:40;;;;;;;21.07;9.83;;;;;;;2.62;100.00;102393.59;5083795;28;20298;-51
2022/01/26 06:22:06;;;;;;;17.77;10.27;;;;;;;2.59;100.00;102396.00;5076193;27;20230;-50
2022/01/26 06:24:32;;;;;;;18.77;10.57;;;;;;;2.49;100.00;102392.00;5076926;28;20242;-53
2022/01/26 06:26:59;;;;;;;19.70;10.27;;;;;;;2.48;100.00;102399.66;5076094;27;20316;-50
2022/01/26 06:29:26;;;;;;;19.43;9.50;;;;;;;2.41;100.00;102408.78;5084835;28;20246;-52
2022/01/26 06:31:53;;;;;;;21.07;10.77;;;;;;;2.45;100.00;102409.84;5079201;27;20230;-52
2022/01/26 06:34:20;;;;;;;20.83;10.83;;;;;;;2.43;100.00;102398.53;5085851;28;20297;-52
2022/01/26 06:36:46;;;;;;;23.83;10.57;;;;;;;2.40;100.00;102396.63;5091391;27;20236;-52
2022/01/26 06:39:14;;;;;;;18.93;11.27;;;;;;;2.44;100.00;102388.22;5085677;27;20226;-52
2022/01/26 06:41:47;;;;;;;25.20;12.20;;;;;;;2.45;100.00;102389.13;5072875;28;20240;-51
2022/01/26 06:44:19;;;;;;;19.23;9.57;;;;;;;2.50;100.00;102382.53;5077827;28;20229;-51
2022/01/26 06:46:56;;;;;;;25.23;10.83;;;;;;;2.44;100.00;102376.97;5083685;28;20233;-52
2022/01/26 06:49:31;;;;;;;29.13;11.00;;;;;;;2.42;100.00;102371.69;5084595;27;20283;-51
2022/01/26 06:51:58;;;;;;;23.37;11.33;;;;;;;2.48;100.00;102387.59;5087047;28;20290;-51
2022/01/26 06:54:25;;;;;;;22.90;11.90;;;;;;;2.28;100.00;102391.63;5084333;28;20294;-54
2022/01/26 06:56:51;;;;;;;22.43;10.70;;;;;;;2.32;100.00;102385.81;5085947;27;20807;-52
2022/01/26 06:59:18;;;;;;;25.13;12.07;;;;;;;2.40;100.00;102375.91;5086207;28;20286;-53
2022/01/26 07:01:44;;;;;;;21.20;11.50;;;;;;;2.28;100.00;102381.25;5085535;27;20650;-51
2022/01/26 07:04:12;;;;;;;23.43;10.23;;;;;;;2.39;100.00;102380.19;5086365;28;20268;-51
2022/01/26 07:06:38;;;;;;;19.37;10.03;;;;;;;2.49;100.00;102380.72;5086045;28;20290;-55
2022/01/26 07:09:05;;;;;;;19.27;10.33;;;;;;;2.46;100.00;102390.91;5082665;28;20290;-54
2022/01/26 07:11:31;;;;;;;18.73;9.70;;;;;;;2.53;100.00;102385.28;5085781;28;20241;-52
2022/01/26 07:13:59;;;;;;;21.60;11.63;;;;;;;2.50;100.00;102385.13;5090460;27;20267;-52
2022/01/26 07:22:10;;;;;;;18.33;9.73;;;;;;;2.59;100.00;102396.88;5015268;28;20381;-51
2022/01/26 07:24:36;;;;;;;20.13;10.53;;;;;;;2.59;100.00;102402.06;5015016;28;20244;-51
2022/01/26 07:27:03;;;;;;;20.83;10.30;;;;;;;2.42;100.00;102396.72;5043945;28;20248;-61
2022/01/26 07:29:29;;;;;;;19.03;10.17;;;;;;;2.48;100.00;102397.06;5084670;28;20247;-52
2022/01/26 07:31:55;;;;;;;20.10;10.43;;;;;;;2.45;100.00;102387.41;5071707;28;20285;-54
2022/01/26 07:34:24;;;;;;;20.87;10.57;;;;;;;2.50;100.00;102386.00;5081491;28;20229;-54
2022/01/26 07:36:52;;;;;;;25.63;12.27;;;;;;;2.45;100.00;102391.72;5087591;27;20302;-52
2022/01/26 07:39:29;;;;;;;21.67;11.40;;;;;;;2.46;100.00;102389.22;5087366;28;21907;-52
2022/01/26 07:41:56;;;;;;;23.70;11.50;;;;;;;2.45;100.00;102383.94;5086028;28;20237;-50
2022/01/26 07:44:22;;;;;;;21.97;10.73;;;;;;;2.41;100.00;102385.44;5086183;28;20360;-53
2022/01/26 07:46:49;;;;;;;22.17;10.97;;;;;;;2.34;100.00;102384.19;5086507;28;20295;-52
2022/01/26 07:49:15;;;;;;;28.53;13.77;;;;;;;2.45;100.00;102374.44;5087437;28;20306;-51
2022/01/26 07:51:43;;;;;;;24.33;11.60;;;;;;;2.49;100.00;102386.81;5079792;28;20304;-52
2022/01/26 07:54:10;;;;;;;29.43;11.33;;;;;;;2.48;100.00;102385.00;5075271;27;20383;-51
2022/01/26 07:56:36;;;;;;;19.17;10.90;;;;;;;2.46;100.00;102383.13;5088729;28;20353;-52
2022/01/26 07:59:02;;;;;;;22.80;11.00;;;;;;;2.50;100.00;102387.72;5085512;27;20230;-53
2022/01/26 08:01:30;;;;;;;23.37;11.03;;;;;;;2.47;100.00;102388.41;5086311;28;20707;-53
2022/01/26 08:03:56;;;;;;;25.37;12.07;;;;;;;2.56;100.00;102393.22;5087102;28;20316;-53
2022/01/26 08:06:23;;;;;;;22.87;10.97;;;;;;;2.46;100.00;102390.91;5082595;27;20248;-50
2022/01/26 08:08:50;;;;;;;23.70;13.13;;;;;;;2.50;100.00;102392.91;5086097;28;20283;-52
2022/01/26 08:11:17;;;;;;;23.53;12.13;;;;;;;2.61;100.00;102387.50;5086250;27;20234;-50
2022/01/26 08:13:43;;;;;;;23.90;11.83;;;;;;;2.56;100.00;102408.78;5084644;27;20258;-53
2022/01/26 08:16:09;;;;;;;20.20;11.40;;;;;;;2.57;100.00;102405.41;5085601;27;20313;-52
2022/01/26 08:18:36;;;;;;;27.37;11.87;;;;;;;2.67;100.00;102404.22;5081888;28;20707;-51
2022/01/26 08:21:06;;;;;;;25.27;10.77;;;;;;;2.70;100.00;102402.69;5086125;28;20226;-52
2022/01/26 08:23:32;;;;;;;22.00;10.93;;;;;;;2.64;100.00;102402.38;5086532;28;20255;-52
2022/01/26 08:26:00;;;;;;;19.50;12.57;;;;;;;2.67;100.00;102394.78;5084058;28;20236;-51
2022/01/26 08:28:32;;;;;;;20.63;9.53;;;;;;;2.79;100.00;102398.06;5089397;28;20237;-51
2022/01/26 08:30:58;;;;;;;23.60;11.07;;;;;;;2.78;100.00;102390.19;5087341;28;20321;-51
2022/01/26 08:33:25;;;;;;;23.50;12.00;;;;;;;2.72;100.00;102389.84;5083618;27;20291;-56
2022/01/26 08:35:51;;;;;;;22.87;11.87;;;;;;;2.74;100.00;102375.22;5082483;27;20644;-52
2022/01/26 08:38:19;;;;;;;22.90;11.27;;;;;;;2.58;100.00;102376.97;5088921;27;20759;-53
2022/01/26 08:40:46;;;;;;;21.93;11.60;;;;;;;2.66;100.00;102382.59;5092629;28;20230;-54
2022/01/26 08:43:14;;;;;;;22.53;11.07;;;;;;;2.74;100.00;102386.53;5100011;28;20222;-54
2022/01/26 08:45:40;;;;;;;20.43;9.17;;;;;;;2.70;100.00;102387.13;5090201;28;20290;-51
2022/01/26 08:48:07;;;;;;;25.40;12.83;;;;;;;2.65;100.00;102391.19;5092577;28;20886;-54
2022/01/26 08:50:34;;;;;;;20.27;11.33;;;;;;;2.78;100.00;102375.53;5087598;28;20283;-54
2022/01/26 08:53:01;;;;;;;22.30;10.53;;;;;;;2.75;100.00;102369.28;5069990;28;20654;-52
2022/01/26 08:55:27;;;;;;;20.37;10.70;;;;;;;2.85;100.00;102366.41;5080953;27;20254;-52
2022/01/26 08:57:54;;;;;;;16.30;9.10;;;;;;;2.77;100.00;102365.03;5085821;28;20238;-51
2022/01/26 09:00:21;;;;;;;22.17;11.43;;;;;;;2.72;100.00;102379.47;5083253;28;20233;-51
2022/01/26 09:02:51;;;;;;;19.50;10.63;;;;;;;2.74;100.00;102383.94;5084557;27;20618;-51
2022/01/26 09:05:17;;;;;;;20.97;10.50;;;;;;;2.72;100.00;102398.50;5076422;28;20287;-52
2022/01/26 09:07:45;;;;;;;37.17;19.03;;;;;;;2.67;100.00;102392.16;5078209;27;20312;-54
2022/01/26 09:10:11;;;;;;;18.73;11.20;;;;;;;2.69;100.00;102394.84;5080464;28;20230;-51
2022/01/26 09:12:41;;;;;;;19.10;10.53;;;;;;;2.76;100.00;102389.19;5084030;28;20578;-54
2022/01/26 09:15:09;;;;;;;18.07;10.47;;;;;;;2.81;100.00;102396.44;5083331;28;20314;-53
2022/01/26 09:17:38;;;;;;;18.97;9.50;;;;;;;2.87;100.00;102390.69;5084033;28;20249;-51
2022/01/26 09:20:06;;;;;;;19.20;10.73;;;;;;;2.85;100.00;102389.75;5084030;27;20241;-55
2022/01/26 09:22:32;;;;;;;17.53;10.47;;;;;;;2.74;100.00;102399.50;5084907;28;20233;-55
2022/01/26 09:24:58;;;;;;;17.10;9.63;;;;;;;2.88;100.00;102408.06;5083412;27;20446;-53
2022/01/26 09:27:25;;;;;;;19.33;9.73;;;;;;;2.91;100.00;102399.53;5074429;27;20243;-50
2022/01/26 09:29:51;;;;;;;15.70;9.10;;;;;;;2.84;100.00;102396.63;5079956;27;20226;-54
2022/01/26 09:32:18;;;;;;;16.87;8.60;;;;;;;2.89;100.00;102399.47;5075311;28;20698;-53
2022/01/26 09:34:46;;;;;;;17.40;9.60;;;;;;;2.88;100.00;102392.50;5084072;28;20229;-53
2022/01/26 09:37:14;;;;;;;15.33;8.77;;;;;;;2.79;100.00;102382.50;5081997;27;20265;-54
2022/01/26 09:39:41;;;;;;;15.00;8.50;;;;;;;2.77;100.00;102378.94;5077763;28;20597;-53
2022/01/26 09:42:09;;;;;;;15.60;9.20;;;;;;;2.81;100.00;102375.69;5078860;27;20271;-53
2022/01/26 09:44:36;;;;;;;19.43;9.53;;;;;;;2.90;100.00;102392.59;5074917;28;20301;-53
2022/01/26 09:47:03;;;;;;;15.20;8.67;;;;;;;2.85;100.00;102388.03;5078593;28;20306;-52
2022/01/26 09:49:32;;;;;;;16.93;9.80;;;;;;;2.93;100.00;102382.38;5082063;28;20237;-53
2022/01/26 09:52:02;;;;;;;17.07;9.27;;;;;;;2.79;100.00;102382.50;5082038;28;20755;-50
2022/01/26 09:54:30;;;;;;;11.43;8.50;;;;;;;2.85;100.00;102376.75;5081313;28;20655;-53
2022/01/26 09:57:01;;;;;;;15.47;9.63;;;;;;;2.83;100.00;102386.16;5077766;28;20225;-53
2022/01/26 09:59:27;;;;;;;14.57;8.40;;;;;;;2.79;100.00;102403.22;5080715;28;20237;-52
2022/01/26 10:01:54;;;;;;;18.83;10.07;;;;;;;2.86;100.00;102404.47;5080808;28;20237;-51
2022/01/26 10:04:22;;;;;;;24.17;10.43;;;;;;;2.81;100.00;102404.22;5080894;27;20229;-52
2022/01/26 10:07:01;;;;;;;18.53;9.37;;;;;;;2.74;100.00;102399.50;5074286;28;20324;-56
2022/01/26 10:17:37;;;;;;;15.23;8.23;;;;;;;2.76;100.00;102408.25;5076323;28;20764;-53
2022/01/26 10:20:06;;;;;;;15.80;8.40;;;;;;;2.81;100.00;102412.00;5077324;28;20226;-52
2022/01/26 10:22:35;;;;;;;15.73;9.37;;;;;;;2.84;100.00;102403.50;5078503;27;20237;-49
2022/01/26 10:25:06;;;;;;;16.13;9.43;;;;;;;2.83;100.00;102405.19;5082104;27;20752;-51
2022/01/26 10:27:37;;;;;;;12.67;8.93;;;;;;;2.89;100.00;102398.59;5082315;28;20916;-49
2022/01/26 10:30:05;;;;;;;17.13;10.17;;;;;;;3.05;100.00;102396.03;5073940;27;20266;-52
2022/01/26 10:32:33;;;;;;;16.60;8.87;;;;;;;3.01;100.00;102394.06;5081274;28;20284;-52
2022/01/26 10:35:01;;;;;;;16.23;8.80;;;;;;;2.95;100.00;102393.72;5077914;27;20229;-56
2022/01/26 10:37:28;;;;;;;18.30;10.03;;;;;;;2.94;100.00;102390.25;5081900;27;20329;-51
2022/01/26 10:40:08;;;;;;;16.17;8.43;;;;;;;2.91;100.00;102384.88;5081252;28;20222;-52
2022/01/26 10:42:35;;;;;;;17.03;9.97;;;;;;;2.91;100.00;102387.47;5085388;28;20252;-52
2022/01/26 10:45:08;;;;;;;12.67;7.90;;;;;;;3.00;100.00;102397.50;5070356;28;20231;-51
2022/01/26 10:47:38;;;;;;;18.10;8.93;;;;;;;3.01;100.00;102388.88;5074686;28;20723;-52
2022/01/26 10:50:31;;;;;;;17.50;7.73;;;;;;;3.11;100.00;102391.19;5071575;28;20234;-52
2022/01/26 10:53:06;;;;;;;13.17;7.97;;;;;;;3.03;100.00;102395.06;5073490;28;20226;-51
2022/01/26 10:55:36;;;;;;;10.80;6.50;;;;;;;2.97;100.00;102387.81;5074988;27;20221;-54
2022/01/26 10:58:03;;;;;;;17.77;7.37;;;;;;;3.05;100.00;102385.66;5077431;28;20770;-53
2022/01/26 11:00:30;;;;;;;11.20;6.57;;;;;;;2.94;100.00;102385.03;5079044;28;20237;-50
2022/01/26 11:02:57;;;;;;;7.73;5.87;;;;;;;3.06;100.00;102393.53;5079528;28;20229;-51
2022/01/26 11:05:24;;;;;;;7.13;5.23;;;;;;;3.12;100.00;102392.97;5077236;28;20238;-52
2022/01/26 11:07:51;;;;;;;8.40;5.83;;;;;;;3.08;100.00;102386.72;5076393;28;20408;-53
2022/01/26 11:10:18;;;;;;;16.83;6.30;;;;;;;3.11;100.00;102396.38;5083401;28;20304;-54
2022/01/26 11:12:46;;;;;;;12.23;5.47;;;;;;;2.97;100.00;102393.00;5082865;28;20231;-50
2022/01/26 11:15:13;;;;;;;9.53;5.67;;;;;;;3.00;100.00;102392.28;5078491;28;20238;-50
2022/01/26 11:17:43;;;;;;;8.80;4.17;;;;;;;3.14;100.00;102391.38;5079673;28;20318;-49
2022/01/26 11:20:19;;;;;;;6.57;4.43;;;;;;;3.16;100.00;102394.03;5078968;28;20230;-52
2022/01/26 11:22:50;;;;;;;18.47;5.37;;;;;;;3.19;100.00;102389.91;5080396;28;20376;-51
2022/01/26 11:25:17;;;;;;;6.03;4.60;;;;;;;3.26;100.00;102394.63;5079825;28;20280;-51
2022/01/26 11:27:44;;;;;;;6.77;4.90;;;;;;;3.08;100.00;102385.81;5077310;28;20261;-49
2022/01/26 11:30:21;;;;;;;6.23;4.80;;;;;;;3.01;100.00;102382.00;5079514;28;20725;-54
2022/01/26 11:32:52;;;;;;;7.40;4.87;;;;;;;2.98;100.00;102375.75;5078241;28;20716;-52
2022/01/26 11:35:20;;;;;;;9.27;5.40;;;;;;;2.89;100.00;102380.44;5075025;28;20232;-49
2022/01/26 11:37:50;;;;;;;8.57;5.30;;;;;;;2.82;100.00;102384.38;5079631;27;20258;-53
2022/01/26 11:46:07;;;;;;;11.40;6.63;;;;;;;2.68;100.00;102362.84;5077915;28;20244;-50
2022/01/26 11:48:33;;;;;;;11.33;7.57;;;;;;;2.63;100.00;102369.44;5078707;28;20573;-52
2022/01/26 11:51:01;;;;;;;10.63;7.63;;;;;;;2.57;100.00;102370.00;5079241;28;20233;-52
2022/01/26 11:53:28;;;;;;;10.37;6.30;;;;;;;2.57;100.00;102363.91;5071161;27;20243;-50
2022/01/26 11:55:59;;;;;;;13.43;7.60;;;;;;;2.46;100.00;102370.16;5077156;27;20297;-49
2022/01/26 11:58:30;;;;;;;13.90;6.20;;;;;;;2.56;100.00;102359.53;5078517;28;20237;-50
2022/01/26 12:01:13;;;;;;;12.60;7.60;;;;;;;2.48;100.00;102358.19;5070269;27;20333;-54
2022/01/26 12:03:46;;;;;;;14.57;7.40;;;;;;;2.48;100.00;102348.72;5077421;28;20283;-52
2022/01/26 12:06:19;;;;;;;11.53;7.87;;;;;;;2.45;100.00;102343.34;5067388;28;20229;-51
2022/01/26 12:08:45;;;;;;;15.00;8.27;;;;;;;2.44;100.00;102335.50;5078622;28;20251;-51
2022/01/26 12:11:13;;;;;;;13.83;8.73;;;;;;;2.33;100.00;102342.66;5073283;28;20293;-51
2022/01/26 12:13:40;;;;;;;20.97;7.83;;;;;;;2.34;100.00;102340.13;5080791;28;20369;-49
2022/01/26 12:16:12;;;;;;;15.53;8.57;;;;;;;2.33;100.00;102334.88;5075102;28;20260;-50
2022/01/26 12:18:45;;;;;;;14.87;8.07;;;;;;;2.31;100.00;102337.38;5068252;28;20242;-50
2022/01/26 12:35:14;;;;;;;14.10;7.43;;;;;;;2.40;100.00;102324.06;5079105;28;20660;-50
2022/01/26 12:37:52;;;;;;;8.50;4.93;;;;;;;2.30;100.00;102313.97;5084914;28;20241;-52
2022/01/26 12:43:13;;;;;;;14.80;7.33;;;;;;;2.17;100.00;102289.03;5084148;28;20275;-52
2022/01/26 12:45:39;;;;;;;15.63;7.53;;;;;;;2.16;100.00;102292.44;5083377;27;20263;-53
2022/01/26 12:48:10;;;;;;;12.10;5.70;;;;;;;2.27;100.00;102291.34;5076958;28;20898;-51
2022/01/26 12:50:38;;;;;;;15.80;6.80;;;;;;;2.28;100.00;102279.28;5072576;28;20738;-51
2022/01/26 12:53:05;;;;;;;10.90;6.27;;;;;;;2.28;100.00;102287.97;5072327;28;20222;-50
2022/01/26 12:55:33;;;;;;;8.33;5.37;;;;;;;2.19;100.00;102291.72;5081694;28;20342;-52
2022/01/26 12:57:59;;;;;;;13.37;7.13;;;;;;;2.02;100.00;102293.31;5101173;27;20221;-51